Cartago, Costa Rica
Current Conditions -  °F | °C
As of 4:00 PM on Friday 19 Dec 2014 (Local Time) from MROC Reporting Station
Broken Clouds Broken Clouds  
Wind Chill: 75°   Ceiling: 8000
Heat Index: 75°   Visibility: 6mi
Dew Point: 63°   Wind: 6mph
Humidity: 65%   Direction: 110°ESE
Pressure: 29.95"   Gusts: NA
Location:  9.87°N, 83.93°W
Report Text: MROC 192200Z 11005KT 9999 FEW025 BKN080 24/17 A2995 TEMPO 22006KT
Loading
Personal Weather Stations






























Interactive Weather Map New forecast layout! Learn more

10-Day Weather Forecast

Advertisements
Track Severe Weather on mobile